< < Back
Terminal Aerodrome Forecast


Current Version              Previous Versions:   1  2  3  4  5  6  7  8  9  

Terminal Aerodrome Forecast

683
FTUS42 KMLB 301400 AAA
TAFMCO
TAF AMD
KMCO 301459Z 3015/3112 27008KT P6SM SCT035 BKN250
      TEMPO 3015/3016 BKN025
     FM301600 28007KT P6SM BKN025 BKN035 BKN250
     FM301800 32011G20KT P6SM SCT020 SCT250
     FM310000 35009KT P6SM SCT250=

Latest METAR

916
SAUS70 KWBC 301700 RRI
MTRMCO
METAR KMCO 301653Z 26009KT 10SM SCT029 BKN037 BKN250 21/13 A3019 RMK AO2
SLP220 T02060133


USA.gov is the U.S. government's official web portal to all federal, state and local government web resources and services.